Time;durP1;ratioP1;P1;durP2;ratioP2;P2;SDS_P1;SDS_P2;PMS_P1;PMS_P2;Temp;Humidity;BMP_temperature;BMP_pressure;BME280_temperature;BME280_humidity;BME280_pressure;Samples;Min_cycle;Max_cycle;Signal;HPM_P1;HPM_P2
2023/09/13 00:00:24;;;;;;;22.17;12.82;;;23.20;92.00;;;;;;5035896;28;20032;-81
2023/09/13 00:02:50;;;;;;;21.42;12.85;;;23.20;92.00;;;;;;5035895;28;20041;-80
2023/09/13 00:05:16;;;;;;;23.00;13.52;;;23.10;91.90;;;;;;5052310;28;20044;-81
2023/09/13 00:07:41;;;;;;;20.35;13.07;;;23.10;92.00;;;;;;5053252;28;20069;-80
2023/09/13 00:10:07;;;;;;;20.08;12.27;;;23.10;92.10;;;;;;5052329;28;20033;-80
2023/09/13 00:12:33;;;;;;;20.83;12.13;;;23.10;92.10;;;;;;5053328;28;20018;-81
2023/09/13 00:14:59;;;;;;;18.92;11.77;;;23.00;92.00;;;;;;5052207;28;20028;-80
2023/09/13 00:17:25;;;;;;;21.30;12.55;;;23.00;92.10;;;;;;5035750;28;20456;-80
2023/09/13 00:19:50;;;;;;;19.63;11.23;;;23.00;92.00;;;;;;5035725;28;20029;-80
2023/09/13 00:22:16;;;;;;;22.25;12.70;;;22.90;92.00;;;;;;5052022;28;20049;-80
2023/09/13 00:24:41;;;;;;;21.52;12.60;;;22.90;92.00;;;;;;5055254;28;20057;-81
2023/09/13 00:27:07;;;;;;;19.73;12.15;;;22.90;91.90;;;;;;5056210;28;20113;-80
2023/09/13 00:29:34;;;;;;;20.35;12.30;;;22.80;91.90;;;;;;5056236;28;20455;-80
2023/09/13 00:32:01;;;;;;;21.63;12.63;;;22.70;91.90;;;;;;5057004;28;20021;-80
2023/09/13 00:34:27;;;;;;;20.20;12.40;;;22.70;92.00;;;;;;5056999;28;20022;-81
2023/09/13 00:36:52;;;;;;;21.30;12.35;;;22.60;92.00;;;;;;5039546;28;20097;-81
2023/09/13 00:39:18;;;;;;;19.35;12.57;;;22.60;92.00;;;;;;5056087;28;20043;-81
2023/09/13 00:41:43;;;;;;;18.70;12.13;;;22.60;92.00;;;;;;5055871;28;20097;-81
2023/09/13 00:44:09;;;;;;;22.30;12.45;;;22.60;92.00;;;;;;5055855;28;20030;-81
2023/09/13 00:46:35;;;;;;;21.52;12.57;;;22.50;91.80;;;;;;5039402;28;20029;-81
2023/09/13 00:49:02;;;;;;;16.52;11.85;;;22.50;91.90;;;;;;5055921;28;20021;-81
2023/09/13 00:51:28;;;;;;;21.17;11.70;;;22.50;92.20;;;;;;5055821;28;20049;-81
2023/09/13 00:53:55;;;;;;;18.90;11.65;;;22.50;91.90;;;;;;5055747;28;20022;-81
2023/09/13 00:56:22;;;;;;;19.52;11.70;;;22.50;91.80;;;;;;5039190;28;20018;-81
2023/09/13 00:58:48;;;;;;;16.77;11.35;;;22.50;91.80;;;;;;5039054;28;20025;-80
2023/09/13 01:01:15;;;;;;;18.95;11.80;;;22.40;92.10;;;;;;5039231;28;20051;-80
2023/09/13 01:03:42;;;;;;;19.45;12.02;;;22.40;91.80;;;;;;5055591;28;20068;-80
2023/09/13 01:06:09;;;;;;;20.60;12.32;;;22.40;91.80;;;;;;5055567;28;20026;-81
2023/09/13 01:08:39;;;;;;;21.77;13.02;;;22.30;91.80;;;;;;5056563;28;20044;-80
2023/09/13 01:11:06;;;;;;;20.70;12.45;;;22.30;91.90;;;;;;5055680;28;20028;-80
2023/09/13 01:13:31;;;;;;;19.77;12.88;;;22.30;91.90;;;;;;5055377;28;20033;-80
2023/09/13 01:16:18;;;;;;;21.25;12.27;;;22.20;92.10;;;;;;5055525;28;20034;-82
2023/09/13 01:18:59;;;;;;;20.90;12.20;;;22.30;92.20;;;;;;5056354;28;20032;-80
2023/09/13 01:21:50;;;;;;;21.40;12.07;;;22.30;92.30;;;;;;5055285;28;20029;-80
2023/09/13 01:24:53;;;;;;;20.17;12.63;;;22.20;92.10;;;;;;5036412;28;20080;-80
2023/09/13 01:27:37;;;;;;;21.65;13.07;;;22.10;92.10;;;;;;5055283;28;20472;-80
2023/09/13 01:30:07;;;;;;;25.48;13.40;;;22.00;92.30;;;;;;5056088;28;20047;-81
2023/09/13 01:32:36;;;;;;;21.73;12.93;;;22.00;92.60;;;;;;5055047;28;20531;-80
2023/09/13 01:35:02;;;;;;;23.50;13.32;;;21.90;92.60;;;;;;5053558;28;20030;-81
2023/09/13 01:37:31;;;;;;;23.20;14.07;;;21.90;93.10;;;;;;5054936;28;20089;-80
2023/09/13 01:39:56;;;;;;;21.88;12.93;;;21.80;92.90;;;;;;5054855;28;20026;-81
2023/09/13 01:42:23;;;;;;;23.13;12.68;;;21.90;93.00;;;;;;5038284;28;20033;-81
2023/09/13 01:44:49;;;;;;;23.58;13.57;;;22.00;92.90;;;;;;5054713;28;20025;-81
2023/09/13 01:47:16;;;;;;;23.02;13.55;;;22.00;92.80;;;;;;5054693;28;20052;-80
2023/09/13 01:49:43;;;;;;;21.52;14.20;;;22.00;92.80;;;;;;5038388;28;20041;-81
2023/09/13 01:52:09;;;;;;;23.55;13.52;;;22.00;92.80;;;;;;5055521;28;20026;-80
2023/09/13 01:54:36;;;;;;;21.73;13.02;;;21.90;92.60;;;;;;5055598;28;20025;-81
2023/09/13 01:57:02;;;;;;;24.73;13.52;;;21.90;92.70;;;;;;5055518;28;20017;-80
2023/09/13 01:59:28;;;;;;;22.08;14.10;;;21.90;92.80;;;;;;5054653;28;20033;-81
2023/09/13 02:01:54;;;;;;;22.52;13.63;;;21.80;92.90;;;;;;5055519;28;20048;-80
2023/09/13 02:04:20;;;;;;;25.27;13.40;;;21.80;92.90;;;;;;5054531;28;20030;-81
2023/09/13 02:06:45;;;;;;;24.65;13.65;;;21.80;93.10;;;;;;5055357;28;20033;-80
2023/09/13 02:09:11;;;;;;;24.20;13.73;;;21.80;93.10;;;;;;5055341;28;20044;-80
2023/09/13 02:11:37;;;;;;;30.20;15.75;;;21.80;93.20;;;;;;5037675;28;20022;-81
2023/09/13 02:14:02;;;;;;;29.98;15.82;;;21.80;93.20;;;;;;5054287;28;20061;-80
2023/09/13 02:16:28;;;;;;;31.30;16.17;;;21.70;93.30;;;;;;5037684;28;20097;-80
2023/09/13 02:18:54;;;;;;;27.98;15.38;;;21.70;93.40;;;;;;5054220;28;20112;-80
2023/09/13 02:21:19;;;;;;;30.67;16.40;;;21.60;93.50;;;;;;5055153;28;20041;-80
2023/09/13 02:23:45;;;;;;;34.75;16.55;;;21.60;93.60;;;;;;5037302;28;20056;-80
2023/09/13 02:26:21;;;;;;;30.77;17.65;;;21.50;93.70;;;;;;5054101;28;20034;-80
2023/09/13 02:28:47;;;;;;;30.98;16.75;;;21.50;93.80;;;;;;5054001;28;20113;-81
2023/09/13 02:31:13;;;;;;;30.30;16.70;;;21.40;93.90;;;;;;5054000;28;20029;-81
2023/09/13 02:33:38;;;;;;;29.02;16.17;;;21.40;93.90;;;;;;5037202;28;20026;-81
2023/09/13 02:36:04;;;;;;;32.85;17.05;;;21.40;93.90;;;;;;5053750;28;20029;-80
2023/09/13 02:38:30;;;;;;;33.67;17.20;;;21.40;93.90;;;;;;5053760;28;20036;-80
2023/09/13 02:40:55;;;;;;;30.98;16.83;;;21.40;94.00;;;;;;5053882;28;20021;-80
2023/09/13 02:43:21;;;;;;;34.42;18.33;;;21.40;94.00;;;;;;5037313;28;20495;-81
2023/09/13 02:45:47;;;;;;;34.55;17.52;;;21.40;94.10;;;;;;5053405;28;20040;-81
2023/09/13 02:48:12;;;;;;;33.92;18.40;;;21.40;94.10;;;;;;5053445;28;20034;-80
2023/09/13 02:50:41;;;;;;;36.85;18.98;;;21.40;94.10;;;;;;5053567;28;20056;-80
2023/09/13 02:53:06;;;;;;;31.80;17.52;;;21.50;94.20;;;;;;5036885;28;20037;-81
2023/09/13 02:55:32;;;;;;;35.40;18.30;;;21.50;94.00;;;;;;5053735;28;20048;-80
2023/09/13 02:57:58;;;;;;;37.83;19.30;;;21.50;94.00;;;;;;5053444;28;20033;-80
2023/09/13 03:00:23;;;;;;;39.63;19.98;;;21.40;94.10;;;;;;5036970;28;20401;-80
2023/09/13 03:02:49;;;;;;;35.42;19.90;;;21.40;94.20;;;;;;5054394;28;20045;-80
2023/09/13 03:05:15;;;;;;;40.33;20.63;;;21.40;94.30;;;;;;5054388;28;20550;-80
2023/09/13 03:07:41;;;;;;;41.75;21.20;;;21.40;94.30;;;;;;5036921;28;20025;-80
2023/09/13 03:10:07;;;;;;;39.58;20.25;;;21.40;94.40;;;;;;5053191;28;20093;-80
2023/09/13 03:12:33;;;;;;;43.47;21.63;;;21.40;94.40;;;;;;5036637;28;20053;-80
2023/09/13 03:14:59;;;;;;;42.30;21.38;;;21.40;94.50;;;;;;5054130;28;20029;-81
2023/09/13 03:17:24;;;;;;;46.25;22.67;;;21.30;94.60;;;;;;5053240;28;20029;-80
2023/09/13 03:19:50;;;;;;;51.67;23.48;;;21.30;94.70;;;;;;5052997;28;20033;-81
2023/09/13 03:22:16;;;;;;;48.00;22.98;;;21.30;94.70;;;;;;5052959;28;20056;-80
2023/09/13 03:24:41;;;;;;;54.20;23.73;;;21.20;94.80;;;;;;5053106;28;20033;-80
2023/09/13 03:27:08;;;;;;;48.13;23.33;;;21.20;94.80;;;;;;5036379;28;20033;-79
2023/09/13 03:29:33;;;;;;;51.08;23.90;;;21.20;94.90;;;;;;5052858;28;20040;-80
2023/09/13 03:31:59;;;;;;;51.30;23.67;;;21.20;94.90;;;;;;5052765;28;20053;-80
2023/09/13 03:34:24;;;;;;;54.20;23.63;;;21.10;95.00;;;;;;5052726;28;20025;-80
2023/09/13 03:36:50;;;;;;;51.88;24.73;;;21.20;95.00;;;;;;5052731;28;20074;-81
2023/09/13 03:39:16;;;;;;;50.17;25.25;;;21.10;95.00;;;;;;5052845;28;20463;-80
2023/09/13 03:41:41;;;;;;;49.72;23.52;;;21.10;95.10;;;;;;5036196;28;20041;-80
2023/09/13 03:44:07;;;;;;;54.67;25.00;;;21.10;95.10;;;;;;5036113;28;20147;-80
2023/09/13 03:46:32;;;;;;;50.28;23.83;;;21.10;95.10;;;;;;5036112;28;20025;-81
2023/09/13 03:48:58;;;;;;;48.00;22.90;;;21.10;95.00;;;;;;5036145;28;20048;-80
2023/09/13 03:51:24;;;;;;;51.50;23.25;;;21.00;95.30;;;;;;5052534;28;20030;-80
2023/09/13 03:53:49;;;;;;;50.85;22.88;;;21.00;95.00;;;;;;5052539;28;20040;-81
2023/09/13 03:56:15;;;;;;;49.08;22.83;;;21.00;95.00;;;;;;5052462;28;20037;-81
2023/09/13 03:58:40;;;;;;;47.70;22.15;;;21.00;95.00;;;;;;5051912;28;20029;-79
2023/09/13 04:01:06;;;;;;;48.67;23.65;;;21.00;94.90;;;;;;5035743;28;20041;-79
2023/09/13 04:03:32;;;;;;;49.55;22.73;;;21.00;95.00;;;;;;5035746;28;20035;-79
2023/09/13 04:05:59;;;;;;;45.30;21.33;;;21.00;95.00;;;;;;5052267;28;20048;-79
2023/09/13 04:08:25;;;;;;;48.35;22.10;;;20.90;95.00;;;;;;5053292;28;20017;-79
2023/09/13 04:10:51;;;;;;;45.22;21.33;;;20.80;95.20;;;;;;5052343;28;20018;-80
2023/09/13 04:13:16;;;;;;;42.72;21.23;;;20.80;95.20;;;;;;5053117;28;20040;-80
2023/09/13 04:15:46;;;;;;;47.45;22.30;;;20.80;95.10;;;;;;5053207;28;20018;-80
2023/09/13 04:18:13;;;;;;;48.35;21.33;;;20.80;95.10;;;;;;5036089;28;20028;-80
2023/09/13 04:20:38;;;;;;;49.90;23.15;;;20.80;95.10;;;;;;5052310;28;20022;-80
2023/09/13 04:23:04;;;;;;;52.95;23.23;;;20.70;95.10;;;;;;5053047;28;20076;-81
2023/09/13 04:25:29;;;;;;;47.22;22.42;;;20.70;95.10;;;;;;5052281;28;20052;-79
2023/09/13 04:27:55;;;;;;;49.80;22.35;;;20.70;95.20;;;;;;5035516;28;20037;-80
2023/09/13 04:30:21;;;;;;;50.05;23.17;;;20.60;95.20;;;;;;5035607;28;20034;-80
2023/09/13 04:32:47;;;;;;;51.20;22.30;;;20.70;95.20;;;;;;5052120;28;20030;-79
2023/09/13 04:35:13;;;;;;;48.97;21.85;;;20.70;95.20;;;;;;5035560;28;20021;-80
2023/09/13 04:37:39;;;;;;;54.92;22.08;;;20.70;95.20;;;;;;5052977;28;20524;-80
2023/09/13 04:40:05;;;;;;;51.83;22.40;;;20.70;95.10;;;;;;5052977;28;20017;-80
2023/09/13 04:42:40;;;;;;;49.95;22.33;;;20.70;95.10;;;;;;5051945;28;20037;-79
2023/09/13 04:45:06;;;;;;;53.17;23.77;;;20.80;95.20;;;;;;5051928;28;20077;-80
2023/09/13 04:47:32;;;;;;;54.42;24.10;;;20.80;95.10;;;;;;5051896;28;20030;-80
2023/09/13 04:49:58;;;;;;;54.45;24.17;;;20.80;95.10;;;;;;5051978;28;20041;-80
2023/09/13 04:52:23;;;;;;;51.22;22.42;;;20.80;95.30;;;;;;5035280;28;20029;-80
2023/09/13 04:54:49;;;;;;;48.67;22.65;;;20.80;94.90;;;;;;5052775;28;20037;-80
2023/09/13 04:57:14;;;;;;;51.33;23.90;;;20.80;94.90;;;;;;5051857;28;20022;-80
2023/09/13 04:59:50;;;;;;;55.33;22.85;;;20.80;94.90;;;;;;5035246;28;20029;-79
2023/09/13 05:02:15;;;;;;;54.00;22.65;;;20.80;94.90;;;;;;5035733;28;20060;-80
2023/09/13 05:04:42;;;;;;;54.35;22.48;;;20.70;95.00;;;;;;5051833;28;20034;-80
2023/09/13 05:07:07;;;;;;;58.90;24.48;;;20.60;95.10;;;;;;5051701;28;20041;-80
2023/09/13 05:09:35;;;;;;;58.65;23.00;;;20.60;95.20;;;;;;5053704;28;20077;-79
2023/09/13 05:12:02;;;;;;;52.25;22.42;;;20.60;95.30;;;;;;5039017;28;20515;-81
2023/09/13 05:14:28;;;;;;;48.72;22.08;;;20.50;95.40;;;;;;5038870;28;20030;-79
2023/09/13 05:16:53;;;;;;;47.10;20.73;;;20.50;95.30;;;;;;5055400;28;20108;-80
2023/09/13 05:19:19;;;;;;;55.63;23.63;;;20.50;95.40;;;;;;5055338;28;20033;-78
2023/09/13 05:21:45;;;;;;;48.90;21.85;;;20.50;95.50;;;;;;5038709;28;20017;-78
2023/09/13 05:24:10;;;;;;;46.95;20.90;;;20.50;95.50;;;;;;5056005;28;20046;-78
2023/09/13 05:26:36;;;;;;;46.22;21.70;;;20.60;95.50;;;;;;5055134;28;20040;-78
2023/09/13 05:29:02;;;;;;;53.53;20.85;;;20.60;95.40;;;;;;5056213;28;20091;-80
2023/09/13 05:31:28;;;;;;;50.95;22.38;;;20.60;95.50;;;;;;5056100;28;20029;-81
2023/09/13 05:33:54;;;;;;;45.88;20.77;;;20.60;95.40;;;;;;5054753;28;20022;-80
2023/09/13 05:36:19;;;;;;;51.92;21.38;;;20.70;95.40;;;;;;5056135;28;20041;-81
2023/09/13 05:38:45;;;;;;;50.05;21.80;;;20.70;95.40;;;;;;5054988;28;20022;-81
2023/09/13 05:41:12;;;;;;;49.50;21.17;;;20.70;95.30;;;;;;5055844;28;20429;-74
2023/09/13 05:43:39;;;;;;;52.05;21.10;;;20.70;95.20;;;;;;5055919;28;20036;-74
2023/09/13 05:46:05;;;;;;;45.88;20.75;;;20.60;95.20;;;;;;5055768;28;20045;-74
2023/09/13 05:48:31;;;;;;;42.53;20.00;;;20.60;95.30;;;;;;5055724;28;20030;-75
2023/09/13 05:50:57;;;;;;;50.58;22.00;;;20.60;95.30;;;;;;5055665;28;20029;-74
2023/09/13 05:53:23;;;;;;;50.42;20.67;;;20.60;95.40;;;;;;5055521;28;20034;-75
2023/09/13 05:55:49;;;;;;;51.88;21.67;;;20.50;95.50;;;;;;5054835;28;20025;-75
2023/09/13 05:58:16;;;;;;;49.78;20.67;;;20.50;95.60;;;;;;5055510;28;20022;-75
2023/09/13 06:00:42;;;;;;;53.88;21.95;;;20.50;95.70;;;;;;5055483;28;20021;-74
2023/09/13 06:03:08;;;;;;;48.50;20.15;;;20.40;95.80;;;;;;5055481;28;20081;-75
2023/09/13 06:05:35;;;;;;;52.97;21.17;;;20.40;95.90;;;;;;5054388;28;20056;-75
2023/09/13 06:08:00;;;;;;;48.90;21.08;;;20.40;96.00;;;;;;5055325;28;20025;-75
2023/09/13 06:10:26;;;;;;;50.22;21.35;;;20.40;96.00;;;;;;5055328;28;20036;-76
2023/09/13 06:12:52;;;;;;;52.17;22.20;;;20.50;96.00;;;;;;5055185;28;20492;-77
2023/09/13 06:15:18;;;;;;;55.45;22.10;;;20.50;95.90;;;;;;5054362;28;20022;-76
2023/09/13 06:17:44;;;;;;;49.22;22.13;;;20.50;95.90;;;;;;5054212;28;20506;-76
2023/09/13 06:20:10;;;;;;;54.65;21.08;;;20.60;95.90;;;;;;5055269;28;20029;-77
2023/09/13 06:22:35;;;;;;;51.42;22.20;;;20.50;95.80;;;;;;5054141;28;20049;-76
2023/09/13 06:25:01;;;;;;;52.35;21.38;;;20.50;95.90;;;;;;5054967;28;20040;-76
2023/09/13 06:27:27;;;;;;;48.20;20.73;;;20.40;96.00;;;;;;5054244;28;20085;-76
2023/09/13 06:29:52;;;;;;;48.08;20.52;;;20.40;96.00;;;;;;5054943;28;20029;-76
2023/09/13 06:32:18;;;;;;;48.00;21.58;;;20.40;96.00;;;;;;5053843;28;20049;-75
2023/09/13 06:34:44;;;;;;;48.60;21.38;;;20.40;96.10;;;;;;5054699;28;20467;-76
2023/09/13 06:37:09;;;;;;;50.95;21.60;;;20.50;96.10;;;;;;5054792;28;20017;-76
2023/09/13 06:39:35;;;;;;;47.85;19.92;;;20.50;96.00;;;;;;5053747;28;20114;-76
2023/09/13 06:42:04;;;;;;;51.42;21.63;;;20.40;95.90;;;;;;5053766;28;20030;-77
2023/09/13 06:44:29;;;;;;;47.83;21.50;;;20.50;95.90;;;;;;5054622;28;20052;-77
2023/09/13 06:46:55;;;;;;;49.20;21.42;;;20.50;96.00;;;;;;5054628;28;20030;-74
2023/09/13 06:49:21;;;;;;;42.90;20.80;;;20.50;96.10;;;;;;5054576;28;20416;-74
2023/09/13 06:54:49;;;;;;;48.15;22.08;;;20.60;96.00;;;;;;5052734;28;20040;-75
2023/09/13 06:57:16;;;;;;;46.28;21.08;;;20.60;95.90;;;;;;5052660;28;20034;-74
2023/09/13 06:59:42;;;;;;;43.33;19.67;;;20.50;96.00;;;;;;5052647;28;20033;-73
2023/09/13 07:02:08;;;;;;;43.58;20.35;;;20.60;96.00;;;;;;5052544;28;20097;-73
2023/09/13 07:04:36;;;;;;;47.65;20.25;;;20.50;96.00;;;;;;5052716;28;20045;-73
2023/09/13 07:07:02;;;;;;;51.38;21.08;;;20.50;96.00;;;;;;5052452;28;20053;-73
2023/09/13 07:09:28;;;;;;;47.25;21.15;;;20.50;96.00;;;;;;5052449;28;20041;-73
2023/09/13 07:11:53;;;;;;;46.03;20.77;;;20.50;96.10;;;;;;5052316;28;20140;-73
2023/09/13 07:14:19;;;;;;;45.45;19.98;;;20.50;96.30;;;;;;5052320;28;20053;-73
2023/09/13 07:16:44;;;;;;;43.17;20.10;;;20.50;96.30;;;;;;5035614;28;20029;-73
2023/09/13 07:19:10;;;;;;;42.83;19.48;;;20.50;96.20;;;;;;5050957;28;20057;-73
2023/09/13 07:21:36;;;;;;;45.40;21.05;;;20.50;96.20;;;;;;5035553;28;20033;-73
2023/09/13 07:24:02;;;;;;;44.00;19.00;;;20.60;96.30;;;;;;5052005;28;20128;-72
2023/09/13 07:26:30;;;;;;;42.38;20.33;;;20.60;96.20;;;;;;5053849;28;20048;-73
2023/09/13 07:28:56;;;;;;;48.50;20.73;;;20.60;96.10;;;;;;5053837;28;20069;-73
2023/09/13 07:31:22;;;;;;;47.97;20.17;;;20.60;96.10;;;;;;5053871;28;20026;-73
2023/09/13 07:33:47;;;;;;;41.65;20.38;;;20.70;96.10;;;;;;5053557;28;20037;-73
2023/09/13 07:36:13;;;;;;;42.10;18.83;;;20.60;95.90;;;;;;5053838;28;20053;-73
2023/09/13 07:38:39;;;;;;;41.00;19.35;;;20.70;96.00;;;;;;5052677;28;20017;-73
2023/09/13 07:41:05;;;;;;;42.00;19.45;;;20.80;96.00;;;;;;5053619;28;20029;-73
2023/09/13 07:43:33;;;;;;;37.67;17.83;;;20.80;96.00;;;;;;5053536;28;20036;-74
2023/09/13 07:46:00;;;;;;;14.27;8.45;;;20.80;96.00;;;;;;5053514;28;20028;-74
2023/09/13 07:48:27;;;;;;;14.23;7.47;;;20.80;95.40;;;;;;5053490;28;20017;-74
2023/09/13 07:50:53;;;;;;;9.82;5.40;;;20.80;95.30;;;;;;5053511;28;20021;-73
2023/09/13 07:53:18;;;;;;;9.60;5.90;;;20.70;94.90;;;;;;5053301;28;20056;-73
2023/09/13 07:55:44;;;;;;;11.63;8.30;;;20.60;94.30;;;;;;5053430;28;20048;-73
2023/09/13 07:58:10;;;;;;;5.32;2.00;;;20.50;94.00;;;;;;5053392;28;20108;-74
2023/09/13 08:00:37;;;;;;;3.92;1.83;;;20.50;93.70;;;;;;5053520;28;20022;-76
2023/09/13 08:03:03;;;;;;;1.20;0.77;;;20.50;94.10;;;;;;5053293;28;20017;-75
2023/09/13 08:05:34;;;;;;;1.48;0.43;;;20.40;92.90;;;;;;5053320;28;20119;-75
2023/09/13 08:08:00;;;;;;;1.25;0.35;;;20.40;92.60;;;;;;5052058;28;20025;-75
2023/09/13 08:10:26;;;;;;;1.23;0.80;;;20.30;92.50;;;;;;5053231;28;20035;-75
2023/09/13 08:12:52;;;;;;;1.50;0.50;;;20.20;92.20;;;;;;5052170;28;20030;-75
2023/09/13 08:15:19;;;;;;;1.13;0.43;;;20.10;92.20;;;;;;5053309;28;20018;-72
2023/09/13 08:17:48;;;;;;;0.55;0.30;;;20.10;92.20;;;;;;5053395;28;20095;-72
2023/09/13 08:20:13;;;;;;;1.20;0.40;;;20.10;92.20;;;;;;5052270;28;20030;-80
2023/09/13 08:22:39;;;;;;;1.10;0.40;;;20.10;92.10;;;;;;5035293;28;20057;-72
2023/09/13 08:25:06;;;;;;;2.97;0.77;;;20.10;91.90;;;;;;5053230;28;20085;-72
2023/09/13 08:27:32;;;;;;;1.08;0.40;;;20.10;91.80;;;;;;5053091;28;20113;-72
2023/09/13 08:29:57;;;;;;;0.68;0.45;;;20.10;91.60;;;;;;5053048;28;20029;-72
2023/09/13 08:32:23;;;;;;;2.28;0.63;;;20.10;91.80;;;;;;5051913;28;20034;-72
2023/09/13 08:34:49;;;;;;;0.88;0.50;;;20.10;91.50;;;;;;5051870;28;20040;-73
2023/09/13 08:37:16;;;;;;;0.77;0.50;;;20.10;91.60;;;;;;5052987;28;20041;-73
2023/09/13 08:39:52;;;;;;;0.47;0.30;;;20.10;91.60;;;;;;5052007;28;20036;-72
2023/09/13 08:46:13;;;;;;;0.90;0.70;;;20.20;91.30;;;;;;5004296;28;20062;-79
2023/09/13 08:48:40;;;;;;;2.60;0.40;;;20.20;91.30;;;;;;5015651;28;20030;-79
2023/09/13 08:51:07;;;;;;;17.95;13.35;;;20.20;91.50;;;;;;5055829;28;20031;-79
2023/09/13 08:53:35;;;;;;;2.15;1.35;;;20.20;91.40;;;;;;5056720;28;20052;-82
2023/09/13 08:56:01;;;;;;;2.78;0.60;;;20.20;90.90;;;;;;5056796;28;20051;-82
2023/09/13 08:58:27;;;;;;;0.93;0.40;;;20.20;91.00;;;;;;5055912;28;20049;-82
2023/09/13 09:00:54;;;;;;;1.60;0.70;;;20.30;91.10;;;;;;5039232;28;20018;-82
2023/09/13 09:03:23;;;;;;;1.75;0.47;;;20.30;91.00;;;;;;5056811;28;20537;-81
2023/09/13 09:05:50;;;;;;;1.48;0.47;;;20.40;90.70;;;;;;5056662;28;20053;-81
2023/09/13 09:08:16;;;;;;;1.13;0.63;;;20.40;90.50;;;;;;5056638;28;20029;-80
2023/09/13 09:10:42;;;;;;;2.90;0.52;;;20.50;90.90;;;;;;5055481;28;20102;-80
2023/09/13 09:13:10;;;;;;;2.00;0.57;;;20.60;91.00;;;;;;5056402;28;20030;-80
2023/09/13 09:15:38;;;;;;;1.33;0.52;;;20.70;90.60;;;;;;5055427;28;20036;-80
2023/09/13 09:18:08;;;;;;;0.52;0.50;;;20.80;90.20;;;;;;5056509;28;20022;-80
2023/09/13 09:20:39;;;;;;;0.90;0.40;;;20.70;89.70;;;;;;5056547;28;20048;-78
2023/09/13 09:23:08;;;;;;;26.33;13.38;;;20.80;90.00;;;;;;5055883;28;20049;-80
2023/09/13 09:25:49;;;;;;;2.70;1.58;;;20.70;89.20;;;;;;5055928;28;20048;-75
2023/09/13 09:28:23;;;;;;;5.20;0.95;;;20.70;89.10;;;;;;5055233;28;20120;-76
2023/09/13 09:31:00;;;;;;;1.40;0.60;;;20.70;89.30;;;;;;5056337;28;20088;-76
2023/09/13 09:33:28;;;;;;;1.15;0.50;;;20.70;89.40;;;;;;5056281;28;20083;-71
2023/09/13 09:35:56;;;;;;;0.60;0.40;;;20.80;89.80;;;;;;5054888;28;20041;-76
2023/09/13 09:38:23;;;;;;;0.73;0.50;;;20.70;89.40;;;;;;5054954;28;20081;-77
2023/09/13 09:40:50;;;;;;;1.25;0.32;;;20.70;89.40;;;;;;5054957;28;20033;-76
2023/09/13 09:43:16;;;;;;;1.60;0.60;;;20.70;89.40;;;;;;5038752;28;20025;-75
2023/09/13 09:45:41;;;;;;;5.05;0.85;;;20.70;88.80;;;;;;5055782;28;20040;-76
2023/09/13 09:48:09;;;;;;;1.85;0.70;;;20.70;88.80;;;;;;5055688;28;20108;-76
2023/09/13 09:50:37;;;;;;;0.73;0.38;;;20.80;88.90;;;;;;5055759;28;20021;-75
2023/09/13 09:53:10;;;;;;;1.00;0.52;;;20.80;88.90;;;;;;5054707;28;20056;-76
2023/09/13 09:59:06;;;;;;;1.23;0.80;;;20.70;88.20;;;;;;5031776;28;20025;-72
2023/09/13 10:01:31;;;;;;;1.10;0.45;;;20.80;88.50;;;;;;5054925;28;20069;-76
2023/09/13 10:04:10;;;;;;;3.50;0.60;;;20.80;88.50;;;;;;5055175;28;20551;-77
2023/09/13 10:06:36;;;;;;;1.38;0.60;;;20.90;88.20;;;;;;5054373;28;20056;-76
2023/09/13 10:09:04;;;;;;;1.42;0.55;;;21.00;88.60;;;;;;5054443;28;20037;-76
2023/09/13 10:11:29;;;;;;;0.77;0.68;;;21.10;88.80;;;;;;5055370;28;20043;-76
2023/09/13 10:13:55;;;;;;;1.45;0.68;;;21.20;87.80;;;;;;5055219;28;20033;-76
2023/09/13 10:16:26;;;;;;;0.98;0.57;;;21.30;86.70;;;;;;5055257;28;20026;-76
2023/09/13 10:18:52;;;;;;;0.97;0.63;;;21.40;86.80;;;;;;5055284;28;20018;-76
2023/09/13 10:21:26;;;;;;;1.50;0.88;;;21.50;85.50;;;;;;5055174;28;20271;-76
2023/09/13 10:24:04;;;;;;;1.77;1.00;;;21.70;86.10;;;;;;5055016;28;20085;-76
2023/09/13 10:26:31;;;;;;;3.70;0.82;;;21.80;85.60;;;;;;5054097;28;20032;-76
2023/09/13 10:29:24;;;;;;;2.45;0.80;;;21.80;84.50;;;;;;5055016;28;20120;-76
2023/09/13 10:31:53;;;;;;;1.80;0.70;;;21.90;84.80;;;;;;5049575;28;20029;-76
2023/09/13 10:34:25;;;;;;;1.33;0.90;;;22.00;85.30;;;;;;5054867;28;20059;-76
2023/09/13 10:37:12;;;;;;;2.08;0.70;;;22.20;85.20;;;;;;5054895;28;20060;-76
2023/09/13 10:39:50;;;;;;;1.73;0.50;;;22.30;84.90;;;;;;5053926;28;20028;-76
2023/09/13 10:42:17;;;;;;;0.75;0.43;;;22.40;84.60;;;;;;5054820;28;20048;-76
2023/09/13 10:44:44;;;;;;;1.20;0.60;;;22.60;83.80;;;;;;5053816;28;20040;-75
2023/09/13 10:47:10;;;;;;;2.17;0.70;;;22.70;82.50;;;;;;5054685;28;20039;-75
2023/09/13 10:49:40;;;;;;;1.05;0.50;;;22.70;81.30;;;;;;5054628;28;20428;-75
2023/09/13 10:52:06;;;;;;;1.05;0.50;;;22.80;81.40;;;;;;5053607;28;20036;-75
2023/09/13 10:54:32;;;;;;;0.98;0.50;;;22.90;80.70;;;;;;5054483;28;20028;-75
2023/09/13 10:56:58;;;;;;;1.90;0.47;;;22.80;81.00;;;;;;5054510;28;20021;-77
2023/09/13 10:59:25;;;;;;;2.05;0.68;;;22.70;80.30;;;;;;5054453;28;20052;-75
2023/09/13 11:01:51;;;;;;;1.48;0.50;;;22.60;80.50;;;;;;5036959;28;20057;-76
2023/09/13 11:04:20;;;;;;;0.82;0.47;;;22.60;80.40;;;;;;5054474;28;20064;-76
2023/09/13 11:06:48;;;;;;;1.35;0.50;;;22.50;80.70;;;;;;5054115;28;20022;-76
2023/09/13 11:09:23;;;;;;;0.63;0.40;;;22.50;80.80;;;;;;5053300;28;20018;-76
2023/09/13 11:11:52;;;;;;;1.40;0.52;;;22.50;80.60;;;;;;5053199;28;20039;-76
2023/09/13 11:14:23;;;;;;;2.30;0.50;;;22.40;80.80;;;;;;5053231;28;20116;-76
2023/09/13 11:16:49;;;;;;;0.93;0.47;;;22.40;81.30;;;;;;5054207;28;20056;-76
2023/09/13 11:19:15;;;;;;;2.95;0.70;;;22.30;80.70;;;;;;5054064;28;20026;-75
2023/09/13 11:21:57;;;;;;;0.57;0.40;;;22.30;80.70;;;;;;5053998;28;20028;-76
2023/09/13 11:24:38;;;;;;;2.03;0.50;;;22.40;81.20;;;;;;5053857;28;20056;-75
2023/09/13 11:27:23;;;;;;;3.05;0.50;;;22.40;80.60;;;;;;5053978;28;20041;-75
2023/09/13 11:29:52;;;;;;;1.23;0.55;;;22.40;80.70;;;;;;5053031;28;20018;-75
2023/09/13 11:32:21;;;;;;;1.02;0.70;;;22.40;80.90;;;;;;5053831;28;20026;-75
2023/09/13 11:34:57;;;;;;;1.27;0.60;;;22.40;81.10;;;;;;5052772;28;20028;-75
2023/09/13 11:37:26;;;;;;;1.48;0.47;;;22.40;81.10;;;;;;5036249;28;20032;-75
2023/09/13 11:39:54;;;;;;;1.90;0.73;;;22.40;81.20;;;;;;5052842;28;20056;-75
2023/09/13 11:42:28;;;;;;;1.73;0.90;;;22.30;81.20;;;;;;5053657;28;20026;-75
2023/09/13 11:44:55;;;;;;;3.28;0.70;;;22.30;80.60;;;;;;5053763;28;20056;-75
2023/09/13 11:47:21;;;;;;;2.00;0.60;;;22.20;80.10;;;;;;5053713;28;20033;-75
2023/09/13 11:49:47;;;;;;;2.78;0.70;;;22.20;80.60;;;;;;5053548;28;20021;-75
2023/09/13 11:52:13;;;;;;;2.53;0.88;;;22.20;80.90;;;;;;5053425;28;20029;-75
2023/09/13 11:54:54;;;;;;;3.15;0.95;;;22.30;81.00;;;;;;5036111;28;20032;-75
2023/09/13 11:57:21;;;;;;;3.30;1.00;;;22.30;80.70;;;;;;5053411;28;20147;-75
2023/09/13 11:59:52;;;;;;;3.25;0.90;;;22.30;81.10;;;;;;5053374;28;20029;-75
2023/09/13 12:02:18;;;;;;;3.88;1.00;;;22.40;79.90;;;;;;5053460;28;20068;-75
2023/09/13 12:04:43;;;;;;;2.33;1.00;;;22.30;79.40;;;;;;5052296;28;20041;-75
2023/09/13 12:07:10;;;;;;;4.07;1.20;;;22.30;79.60;;;;;;5052433;28;20060;-75
2023/09/13 12:09:36;;;;;;;1.63;0.90;;;22.30;79.00;;;;;;5053293;28;20032;-75
2023/09/13 12:12:02;;;;;;;3.10;1.25;;;22.20;78.90;;;;;;5053189;28;20053;-75
2023/09/13 12:14:30;;;;;;;2.10;0.98;;;22.20;79.00;;;;;;5053313;28;20029;-76
2023/09/13 12:16:57;;;;;;;3.35;1.10;;;22.10;78.70;;;;;;5053229;28;20049;-76
2023/09/13 12:19:24;;;;;;;2.47;1.30;;;22.20;79.00;;;;;;5052557;28;20025;-76
2023/09/13 12:21:50;;;;;;;4.18;1.75;;;22.20;79.00;;;;;;5053146;28;20493;-76
2023/09/13 12:24:20;;;;;;;3.30;1.25;;;22.30;78.70;;;;;;5051964;28;20046;-76
2023/09/13 12:26:45;;;;;;;1.85;0.88;;;22.30;78.30;;;;;;5053119;28;20033;-76
2023/09/13 12:29:11;;;;;;;2.95;1.30;;;22.30;78.10;;;;;;5052225;28;20033;-76
2023/09/13 12:31:37;;;;;;;1.60;1.00;;;22.40;78.90;;;;;;5053153;28;20030;-77
2023/09/13 12:34:05;;;;;;;2.38;1.30;;;22.50;78.70;;;;;;5035503;28;20033;-77
2023/09/13 12:36:31;;;;;;;4.18;1.40;;;22.50;78.50;;;;;;5052057;28;20018;-77
2023/09/13 12:38:58;;;;;;;2.22;1.10;;;22.50;77.60;;;;;;5052092;28;20032;-77
2023/09/13 12:41:32;;;;;;;3.28;1.38;;;22.60;77.60;;;;;;5035756;28;20025;-76
2023/09/13 12:44:00;;;;;;;2.72;1.50;;;22.50;77.90;;;;;;5052027;28;20096;-77